createdAt,value
2017-11-22T00:00:34.778Z,10.58
2017-11-22T00:01:34.772Z,10.62
2017-11-22T00:02:34.765Z,10.57
2017-11-22T00:03:34.761Z,10.48
2017-11-22T00:04:34.752Z,10.58
2017-11-22T00:05:34.746Z,10.52
2017-11-22T00:06:34.745Z,10.57
2017-11-22T00:07:34.727Z,10.64
2017-11-22T00:08:35.442Z,10.62
2017-11-22T00:09:34.719Z,10.46
2017-11-22T00:10:35.442Z,10.62
2017-11-22T00:11:34.704Z,10.61
2017-11-22T00:12:34.693Z,10.57
2017-11-22T00:13:34.689Z,10.52
2017-11-22T00:14:34.675Z,10.52
2017-11-22T00:15:34.678Z,10.60
2017-11-22T00:16:34.678Z,10.58
2017-11-22T00:17:34.671Z,10.57
2017-11-22T00:18:34.656Z,10.61
2017-11-22T00:19:34.649Z,10.57
2017-11-22T00:20:34.643Z,10.67
2017-11-22T00:21:34.633Z,10.55
2017-11-22T00:22:34.632Z,10.57
2017-11-22T00:23:34.621Z,10.64
2017-11-22T00:24:34.624Z,10.64
2017-11-22T00:25:34.602Z,10.57
2017-11-22T00:26:34.607Z,10.65
2017-11-22T00:27:34.594Z,10.64
2017-11-22T00:28:34.587Z,10.68
2017-11-22T00:29:34.590Z,10.70
2017-11-22T00:30:34.579Z,10.72
2017-11-22T00:31:34.580Z,10.65
2017-11-22T00:31:47.435Z,10.65
2017-11-22T00:33:34.553Z,10.60
2017-11-22T00:34:34.539Z,10.75
2017-11-22T00:35:35.445Z,10.57
2017-11-22T00:36:34.520Z,10.79
2017-11-22T00:37:35.460Z,10.65
2017-11-22T00:38:34.519Z,10.70
2017-11-22T00:39:34.513Z,10.62
2017-11-22T00:40:34.501Z,10.62
2017-11-22T00:41:34.492Z,10.65
2017-11-22T00:42:35.439Z,10.68
2017-11-22T00:43:34.487Z,10.67
2017-11-22T00:44:34.470Z,10.75
2017-11-22T00:45:34.459Z,10.79
2017-11-22T00:46:34.465Z,10.73
2017-11-22T00:47:34.454Z,10.80
2017-11-22T00:48:34.945Z,10.76
2017-11-22T00:49:34.435Z,10.79
2017-11-22T00:50:34.437Z,10.76
2017-11-22T00:51:34.949Z,10.76
2017-11-22T00:52:34.949Z,10.73
2017-11-22T00:53:34.411Z,10.83
2017-11-22T00:54:34.409Z,10.83
2017-11-22T00:55:34.392Z,10.82
2017-11-22T00:56:34.398Z,10.78
2017-11-22T00:57:34.372Z,10.80
2017-11-22T00:58:34.385Z,10.83
2017-11-22T00:59:34.950Z,10.86
2017-11-22T01:00:34.371Z,10.83
2017-11-22T01:01:34.359Z,10.82
2017-11-22T01:02:34.349Z,10.79
2017-11-22T01:03:34.348Z,10.90
2017-11-22T01:04:34.342Z,10.90
2017-11-22T01:05:34.325Z,10.79
2017-11-22T01:06:34.959Z,10.90
2017-11-22T01:07:34.313Z,10.90
2017-11-22T01:08:34.315Z,10.80
2017-11-22T01:09:34.295Z,10.91
2017-11-22T01:10:34.296Z,10.85
2017-11-22T01:11:34.288Z,10.93
2017-11-22T01:12:34.288Z,10.90
2017-11-22T01:13:34.278Z,10.86
2017-11-22T01:14:34.969Z,10.90
2017-11-22T01:15:34.261Z,10.91
2017-11-22T01:16:34.275Z,10.94
2017-11-22T01:17:34.257Z,10.87
2017-11-22T01:18:34.963Z,10.91
2017-11-22T01:19:34.231Z,10.94
2017-11-22T01:20:34.239Z,10.91
2017-11-22T01:21:34.225Z,10.87
2017-11-22T01:22:34.219Z,10.90
2017-11-22T01:23:34.212Z,10.91
2017-11-22T01:24:36.957Z,10.91
2017-11-22T01:25:34.204Z,10.90
2017-11-22T01:26:34.190Z,10.87
2017-11-22T01:27:34.182Z,10.98
2017-11-22T01:28:34.172Z,10.87
2017-11-22T01:29:34.163Z,10.94
2017-11-22T01:30:34.156Z,10.93
2017-11-22T01:31:34.148Z,10.90
2017-11-22T01:32:34.148Z,10.87
2017-11-22T01:33:34.138Z,10.91
2017-11-22T01:34:34.128Z,10.91
2017-11-22T01:35:34.146Z,10.82
2017-11-22T01:36:34.964Z,10.82
2017-11-22T01:37:34.109Z,10.86
2017-11-22T01:38:34.118Z,10.90
2017-11-22T01:39:34.118Z,10.86
2017-11-22T01:40:34.108Z,10.91
2017-11-22T01:41:34.974Z,10.86
2017-11-22T01:42:34.074Z,10.86
2017-11-22T01:43:34.071Z,10.93
2017-11-22T01:44:34.056Z,10.90
2017-11-22T01:45:34.058Z,10.97
2017-11-22T01:46:34.047Z,10.86
2017-11-22T01:47:40.965Z,10.82
2017-11-22T01:48:34.042Z,10.82
2017-11-22T01:49:34.030Z,10.80
2017-11-22T01:50:34.040Z,10.86
2017-11-22T01:51:34.972Z,10.86
2017-11-22T01:52:34.009Z,10.91
2017-11-22T01:53:34.005Z,10.85
2017-11-22T01:54:34.001Z,10.82
2017-11-22T01:55:34.008Z,10.85
2017-11-22T01:56:36.976Z,10.91
2017-11-22T01:57:33.981Z,10.87
2017-11-22T01:58:33.968Z,10.93
2017-11-22T01:59:33.963Z,10.93
2017-11-22T02:00:33.953Z,10.90
2017-11-22T02:01:33.951Z,10.91
2017-11-22T02:02:33.945Z,10.85
2017-11-22T02:03:33.934Z,10.86
2017-11-22T02:04:33.932Z,10.82
2017-11-22T02:05:33.922Z,10.80
2017-11-22T02:06:33.930Z,10.83
2017-11-22T02:07:33.924Z,10.87
2017-11-22T02:08:33.905Z,10.83
2017-11-22T02:09:33.891Z,10.79
2017-11-22T02:10:33.888Z,10.86
2017-11-22T02:11:36.486Z,10.82
2017-11-22T02:12:33.883Z,10.87
2017-11-22T02:13:33.873Z,10.91
2017-11-22T02:14:33.868Z,10.90
2017-11-22T02:15:33.856Z,10.85
2017-11-22T02:16:33.855Z,10.87
2017-11-22T02:17:33.837Z,10.80
2017-11-22T02:18:33.839Z,10.78
2017-11-22T02:19:33.838Z,10.85
2017-11-22T02:20:33.832Z,10.90
2017-11-22T02:21:33.829Z,10.86
2017-11-22T02:22:33.799Z,10.91
2017-11-22T02:23:33.799Z,10.86
2017-11-22T02:24:33.798Z,10.78
2017-11-22T02:25:33.788Z,10.78
2017-11-22T02:26:33.777Z,10.80
2017-11-22T02:27:34.509Z,10.82
2017-11-22T02:28:33.785Z,10.85
2017-11-22T02:29:33.761Z,10.91
2017-11-22T02:30:33.769Z,10.86
2017-11-22T02:31:33.751Z,10.94
2017-11-22T02:32:33.773Z,10.93
2017-11-22T02:33:34.495Z,10.90
2017-11-22T02:34:33.722Z,10.82
2017-11-22T02:35:34.504Z,10.90
2017-11-22T02:36:33.706Z,10.85
2017-11-22T02:37:33.720Z,10.86
2017-11-22T02:38:33.712Z,10.90
2017-11-22T02:39:33.730Z,10.86
2017-11-22T02:40:33.686Z,10.91
2017-11-22T02:41:33.681Z,10.90
2017-11-22T02:42:33.667Z,10.82
2017-11-22T02:43:33.670Z,10.85
2017-11-22T02:44:33.674Z,10.85
2017-11-22T02:45:34.490Z,10.90
2017-11-22T02:46:33.657Z,10.87
2017-11-22T02:47:33.649Z,10.93
2017-11-22T02:48:33.638Z,10.91
2017-11-22T02:49:34.494Z,10.90
2017-11-22T02:50:33.626Z,10.93
2017-11-22T02:51:33.624Z,10.87
2017-11-22T02:52:33.604Z,10.87
2017-11-22T02:53:33.606Z,10.86
2017-11-22T02:54:33.595Z,10.87
2017-11-22T02:55:33.586Z,10.87
2017-11-22T02:56:33.584Z,10.80
2017-11-22T02:57:33.586Z,10.79
2017-11-22T02:58:33.568Z,10.72
2017-11-22T02:59:33.570Z,10.79
2017-11-22T03:00:33.547Z,10.79
2017-11-22T03:01:33.553Z,10.79
2017-11-22T03:02:33.531Z,10.73
2017-11-22T03:03:33.535Z,10.87
2017-11-22T03:04:34.498Z,10.85
2017-11-22T03:05:33.516Z,10.82
2017-11-22T03:06:33.518Z,10.86
2017-11-22T03:07:33.502Z,10.75
2017-11-22T03:08:33.506Z,10.80
2017-11-22T03:09:33.495Z,10.82
2017-11-22T03:10:33.483Z,10.79
2017-11-22T03:11:33.482Z,10.73
2017-11-22T03:12:34.017Z,10.83
2017-11-22T03:13:33.459Z,10.83
2017-11-22T03:14:33.482Z,10.79
2017-11-22T03:15:33.465Z,10.79
2017-11-22T03:16:33.445Z,10.73
2017-11-22T03:17:33.451Z,10.78
2017-11-22T03:18:33.430Z,10.82
2017-11-22T03:19:33.417Z,10.79
2017-11-22T03:20:33.422Z,10.76
2017-11-22T03:21:33.407Z,10.79
2017-11-22T03:22:33.414Z,10.76
2017-11-22T03:23:33.404Z,10.67
2017-11-22T03:24:33.391Z,10.67
2017-11-22T03:25:33.384Z,10.61
2017-11-22T03:26:34.008Z,10.64
2017-11-22T03:27:34.034Z,10.68
2017-11-22T03:28:33.358Z,10.68
2017-11-22T03:29:33.350Z,10.54
2017-11-22T03:30:33.360Z,10.61
2017-11-22T03:31:33.344Z,10.61
2017-11-22T03:32:33.335Z,10.61
2017-11-22T03:33:33.324Z,10.58
2017-11-22T03:34:34.014Z,10.64
2017-11-22T03:35:33.304Z,10.54
2017-11-22T03:36:33.297Z,10.58
2017-11-22T03:37:33.311Z,10.61
2017-11-22T03:38:33.333Z,10.57
2017-11-22T03:39:48.012Z,10.49
2017-11-22T03:40:38.516Z,10.57
2017-11-22T03:41:38.525Z,10.49
2017-11-22T03:42:45.016Z,10.55
2017-11-22T03:43:38.496Z,10.52
2017-11-22T03:44:41.018Z,10.55
2017-11-22T03:45:38.499Z,10.49
2017-11-22T03:46:38.481Z,10.49
2017-11-22T03:47:38.460Z,10.54
2017-11-22T03:48:39.034Z,10.46
2017-11-22T03:49:39.028Z,10.52
2017-11-22T03:50:38.442Z,10.52
2017-11-22T03:51:38.453Z,10.46
2017-11-22T03:52:38.431Z,10.45
2017-11-22T03:53:39.014Z,10.42
2017-11-22T03:54:45.025Z,10.43
2017-11-22T03:55:38.410Z,10.42
2017-11-22T03:56:38.405Z,10.41
2017-11-22T03:57:41.043Z,10.38
2017-11-22T03:58:38.386Z,10.36
2017-11-22T03:59:39.036Z,10.45
2017-11-22T04:00:39.020Z,10.41
2017-11-22T04:01:38.368Z,10.38
2017-11-22T04:02:39.028Z,10.39
2017-11-22T04:03:38.347Z,10.39
2017-11-22T04:04:41.034Z,10.38
2017-11-22T04:05:38.352Z,10.34
2017-11-22T04:06:38.332Z,10.39
2017-11-22T04:07:39.034Z,10.34
2017-11-22T04:08:38.334Z,10.38
2017-11-22T04:09:39.029Z,10.36
2017-11-22T04:10:41.034Z,10.28
2017-11-22T04:11:38.307Z,10.38
2017-11-22T04:12:39.025Z,10.39
2017-11-22T04:13:41.032Z,10.38
2017-11-22T04:14:39.032Z,10.35
2017-11-22T04:15:38.290Z,10.38
2017-11-22T04:16:38.263Z,10.41
2017-11-22T04:17:38.267Z,10.35
2017-11-22T04:18:39.026Z,10.28
2017-11-22T04:19:38.267Z,10.31
2017-11-22T04:20:38.235Z,10.34
2017-11-22T04:21:38.250Z,10.31
2017-11-22T04:22:39.030Z,10.28
2017-11-22T04:23:38.216Z,10.38
2017-11-22T04:24:38.203Z,10.35
2017-11-22T04:25:38.208Z,10.30
2017-11-22T04:26:38.202Z,10.35
2017-11-22T04:27:38.187Z,10.42
2017-11-22T04:28:38.181Z,10.35
2017-11-22T04:29:38.176Z,10.35
2017-11-22T04:30:38.159Z,10.30
2017-11-22T04:31:38.160Z,10.34
2017-11-22T04:32:38.159Z,10.38
2017-11-22T04:33:38.146Z,10.30
2017-11-22T04:34:38.138Z,10.35
2017-11-22T04:35:38.149Z,10.38
2017-11-22T04:36:38.139Z,10.34
2017-11-22T04:37:38.130Z,10.38
2017-11-22T04:38:38.116Z,10.42
2017-11-22T04:39:39.046Z,10.36
2017-11-22T04:40:38.125Z,10.36
2017-11-22T04:41:38.105Z,10.36
2017-11-22T04:42:39.039Z,10.45
2017-11-22T04:43:38.081Z,10.39
2017-11-22T04:44:38.086Z,10.42
2017-11-22T04:45:38.075Z,10.38
2017-11-22T04:46:38.047Z,10.35
2017-11-22T04:47:39.039Z,10.49
2017-11-22T04:48:38.539Z,10.35
2017-11-22T04:49:38.040Z,10.43
2017-11-22T04:50:38.029Z,10.48
2017-11-22T04:51:38.032Z,10.46
2017-11-22T04:52:38.009Z,10.42
2017-11-22T04:53:38.035Z,10.55
2017-11-22T04:54:38.004Z,10.48
2017-11-22T04:55:37.999Z,10.49
2017-11-22T04:56:37.996Z,10.58
2017-11-22T04:57:38.004Z,10.58
2017-11-22T04:58:37.970Z,10.55
2017-11-22T04:59:37.963Z,10.46
2017-11-22T05:00:37.977Z,10.58
2017-11-22T05:01:37.964Z,10.49
2017-11-22T05:02:37.946Z,10.48
2017-11-22T05:03:37.936Z,10.55
2017-11-22T05:04:37.930Z,10.57
2017-11-22T05:05:37.915Z,10.52
2017-11-22T05:06:37.909Z,10.58
2017-11-22T05:07:37.921Z,10.49
2017-11-22T05:08:37.912Z,10.55
2017-11-22T05:09:37.892Z,10.46
2017-11-22T05:10:37.894Z,10.38
2017-11-22T05:11:37.907Z,10.39
2017-11-22T05:12:37.883Z,10.41
2017-11-22T05:13:37.868Z,10.49
2017-11-22T05:14:37.871Z,10.38
2017-11-22T05:15:37.856Z,10.38
2017-11-22T05:16:37.890Z,10.39
2017-11-22T05:17:40.557Z,10.31
2017-11-22T05:18:40.556Z,10.45
2017-11-22T05:19:37.835Z,10.41
2017-11-22T05:20:37.817Z,10.46
2017-11-22T05:21:38.552Z,10.42
2017-11-22T05:22:37.808Z,10.43
2017-11-22T05:23:37.805Z,10.52
2017-11-22T05:24:38.557Z,10.42
2017-11-22T05:25:37.789Z,10.48
2017-11-22T05:26:40.556Z,10.52
2017-11-22T05:27:37.776Z,10.57
2017-11-22T05:28:37.791Z,10.57
2017-11-22T05:29:37.755Z,10.52
2017-11-22T05:30:37.759Z,10.52
2017-11-22T05:31:38.566Z,10.54
2017-11-22T05:32:40.564Z,10.42
2017-11-22T05:33:37.730Z,10.43
2017-11-22T05:34:37.723Z,10.42
2017-11-22T05:35:37.707Z,10.46
2017-11-22T05:36:37.717Z,10.45
2017-11-22T05:37:37.704Z,10.39
2017-11-22T05:38:37.698Z,10.46
2017-11-22T05:39:38.565Z,10.52
2017-11-22T05:40:37.684Z,10.43
2017-11-22T05:41:37.696Z,10.43
2017-11-22T05:42:37.670Z,10.39
2017-11-22T05:43:38.569Z,10.42
2017-11-22T05:44:37.658Z,10.43
2017-11-22T05:45:37.644Z,10.43
2017-11-22T05:46:37.643Z,10.41
2017-11-22T05:47:37.633Z,10.42
2017-11-22T05:48:37.624Z,10.49
2017-11-22T05:49:37.614Z,10.43
2017-11-22T05:50:37.601Z,10.36
2017-11-22T05:51:37.599Z,10.34
2017-11-22T05:52:38.287Z,10.45
2017-11-22T05:53:37.619Z,10.49
2017-11-22T05:54:37.602Z,10.45
2017-11-22T05:55:37.567Z,10.42
2017-11-22T05:56:37.584Z,10.39
2017-11-22T05:57:37.563Z,10.39
2017-11-22T05:58:38.068Z,10.42
2017-11-22T05:59:37.566Z,10.43
2017-11-22T06:00:37.537Z,10.45
2017-11-22T06:01:37.537Z,10.45
2017-11-22T06:02:37.524Z,10.45
2017-11-22T06:03:37.525Z,10.38
2017-11-22T06:04:37.522Z,10.39
2017-11-22T06:05:38.090Z,10.43
2017-11-22T06:06:37.495Z,10.38
2017-11-22T06:07:37.506Z,10.34
2017-11-22T06:08:38.091Z,10.39
2017-11-22T06:09:37.474Z,10.31
2017-11-22T06:10:37.477Z,10.41
2017-11-22T06:11:37.469Z,10.36
2017-11-22T06:12:37.447Z,10.42
2017-11-22T06:13:37.472Z,10.41
2017-11-22T06:14:37.451Z,10.39
2017-11-22T06:15:37.431Z,10.42
2017-11-22T06:16:37.431Z,10.35
2017-11-22T06:17:37.425Z,10.42
2017-11-22T06:18:37.421Z,10.39
2017-11-22T06:19:37.413Z,10.35
2017-11-22T06:20:37.397Z,10.36
2017-11-22T06:21:37.396Z,10.34
2017-11-22T06:22:37.399Z,10.36
2017-11-22T06:23:37.393Z,10.39
2017-11-22T06:24:37.369Z,10.41
2017-11-22T06:25:37.370Z,10.45
2017-11-22T06:26:37.361Z,10.42
2017-11-22T06:27:37.359Z,10.39
2017-11-22T06:28:37.342Z,10.38
2017-11-22T06:29:37.336Z,10.48
2017-11-22T06:30:37.326Z,10.49
2017-11-22T06:31:37.325Z,10.41
2017-11-22T06:32:37.320Z,10.39
2017-11-22T06:33:37.320Z,10.34
2017-11-22T06:34:37.298Z,10.42
2017-11-22T06:35:37.302Z,10.39
2017-11-22T06:36:37.301Z,10.45
2017-11-22T06:37:37.300Z,10.36
2017-11-22T06:38:37.278Z,10.42
2017-11-22T06:39:37.277Z,10.38
2017-11-22T06:40:37.260Z,10.35
2017-11-22T06:41:37.256Z,10.43
2017-11-22T06:42:37.250Z,10.42
2017-11-22T06:43:37.288Z,10.41
2017-11-22T06:44:38.092Z,10.35
2017-11-22T06:45:37.227Z,10.35
2017-11-22T06:46:37.214Z,10.41
2017-11-22T06:47:37.206Z,10.31
2017-11-22T06:48:37.198Z,10.38
2017-11-22T06:49:37.199Z,10.26
2017-11-22T06:50:37.210Z,10.31
2017-11-22T06:51:37.193Z,10.27
2017-11-22T06:52:37.176Z,10.27
2017-11-22T06:53:37.176Z,10.34
2017-11-22T06:54:37.164Z,10.26
2017-11-22T06:55:37.161Z,10.24
2017-11-22T06:56:37.150Z,10.23
2017-11-22T06:57:37.143Z,10.20
2017-11-22T06:58:37.141Z,10.24
2017-11-22T06:59:37.123Z,10.12
2017-11-22T07:00:37.119Z,10.05
2017-11-22T07:01:37.113Z,10.01
2017-11-22T07:02:37.116Z,9.99
2017-11-22T07:03:37.097Z,9.94
2017-11-22T07:04:37.101Z,9.98
2017-11-22T07:05:37.083Z,9.99
2017-11-22T07:06:37.073Z,9.96
2017-11-22T07:07:37.077Z,9.98
2017-11-22T07:08:37.060Z,9.90
2017-11-22T07:09:37.051Z,9.91
2017-11-22T07:10:37.056Z,9.80
2017-11-22T07:11:37.045Z,9.83
2017-11-22T07:12:37.035Z,9.84
2017-11-22T07:13:37.035Z,9.80
2017-11-22T07:14:37.018Z,9.77
2017-11-22T07:15:37.010Z,9.77
2017-11-22T07:16:37.006Z,9.83
2017-11-22T07:17:37.002Z,9.84
2017-11-22T07:18:36.990Z,9.85
2017-11-22T07:19:36.983Z,9.80
2017-11-22T07:20:36.980Z,9.83
2017-11-22T07:21:36.967Z,9.84
2017-11-22T07:22:36.958Z,9.84
2017-11-22T07:23:36.968Z,9.84
2017-11-22T07:24:36.946Z,9.87
2017-11-22T07:25:36.938Z,9.85
2017-11-22T07:26:36.934Z,9.84
2017-11-22T07:27:36.924Z,9.85
2017-11-22T07:28:36.919Z,9.81
2017-11-22T07:29:36.899Z,9.85
2017-11-22T07:30:36.896Z,9.90
2017-11-22T07:31:36.897Z,9.88
2017-11-22T07:32:36.887Z,9.83
2017-11-22T07:33:36.883Z,9.85
2017-11-22T07:34:36.869Z,9.83
2017-11-22T07:35:36.868Z,9.88
2017-11-22T07:36:36.870Z,9.87
2017-11-22T07:37:36.845Z,9.83
2017-11-22T07:38:36.844Z,9.88
2017-11-22T07:39:36.840Z,9.90
2017-11-22T07:40:36.828Z,10.02
2017-11-22T07:41:36.833Z,9.98
2017-11-22T07:42:36.809Z,10.01
2017-11-22T07:43:36.796Z,9.98
2017-11-22T07:44:36.792Z,9.99
2017-11-22T07:45:36.781Z,10.01
2017-11-22T07:46:36.780Z,10.06
2017-11-22T07:47:36.772Z,10.05
2017-11-22T07:48:36.769Z,10.10
2017-11-22T07:49:36.772Z,10.08
2017-11-22T07:50:36.751Z,10.06
2017-11-22T07:51:36.749Z,10.06
2017-11-22T07:52:36.740Z,10.12
2017-11-22T07:53:37.440Z,10.08
2017-11-22T07:54:36.730Z,10.03
2017-11-22T07:55:36.719Z,10.20
2017-11-22T07:56:36.714Z,10.18
2017-11-22T07:57:36.712Z,10.16
2017-11-22T07:58:36.708Z,10.12
2017-11-22T07:59:36.690Z,10.17
2017-11-22T08:00:36.681Z,10.23
2017-11-22T08:01:36.690Z,10.12
2017-11-22T08:02:37.020Z,10.24
2017-11-22T08:03:36.656Z,10.24
2017-11-22T08:04:36.657Z,10.23
2017-11-22T08:05:36.647Z,10.23
2017-11-22T08:06:36.644Z,10.42
2017-11-22T08:07:36.632Z,10.36
2017-11-22T08:08:36.626Z,10.30
2017-11-22T08:09:36.616Z,10.36
2017-11-22T08:10:36.615Z,10.41
2017-11-22T08:11:36.606Z,10.36
2017-11-22T08:12:36.592Z,10.41
2017-11-22T08:13:36.596Z,10.42
2017-11-22T08:14:36.587Z,10.42
2017-11-22T08:15:36.579Z,10.43
2017-11-22T08:16:36.567Z,10.46
2017-11-22T08:17:36.560Z,10.58
2017-11-22T08:18:36.559Z,10.58
2017-11-22T08:19:36.547Z,10.61
2017-11-22T08:20:36.539Z,10.61
2017-11-22T08:21:36.534Z,10.60
2017-11-22T08:22:36.519Z,10.68
2017-11-22T08:23:36.525Z,10.60
2017-11-22T08:24:36.516Z,10.79
2017-11-22T08:25:36.502Z,10.65
2017-11-22T08:26:36.511Z,10.67
2017-11-22T08:27:36.488Z,10.73
2017-11-22T08:28:36.485Z,10.75
2017-11-22T08:29:36.476Z,10.72
2017-11-22T08:30:36.469Z,10.70
2017-11-22T08:31:36.465Z,10.75
2017-11-22T08:32:36.466Z,10.70
2017-11-22T08:33:36.454Z,10.79
2017-11-22T08:34:36.443Z,10.86
2017-11-22T08:35:36.434Z,10.90
2017-11-22T08:36:36.448Z,10.95
2017-11-22T08:37:36.424Z,10.91
2017-11-22T08:38:36.415Z,10.97
2017-11-22T08:39:36.416Z,11.00
2017-11-22T08:40:36.397Z,11.03
2017-11-22T08:41:36.404Z,11.09
2017-11-22T08:42:36.393Z,11.04
2017-11-22T08:43:36.391Z,11.16
2017-11-22T08:44:36.384Z,11.19
2017-11-22T08:45:36.366Z,11.20
2017-11-22T08:46:36.367Z,11.09
2017-11-22T08:47:36.351Z,11.27
2017-11-22T08:48:36.348Z,11.27
2017-11-22T08:49:36.346Z,11.30
2017-11-22T08:50:36.340Z,11.36
2017-11-22T08:51:36.336Z,11.27
2017-11-22T08:52:36.322Z,11.36
2017-11-22T08:53:36.319Z,11.45
2017-11-22T08:54:36.309Z,11.49
2017-11-22T08:55:36.306Z,11.48
2017-11-22T08:56:36.296Z,11.46
2017-11-22T08:57:36.306Z,11.54
2017-11-22T08:58:36.286Z,11.49
2017-11-22T08:59:36.287Z,11.58
2017-11-22T09:00:36.275Z,11.55
2017-11-22T09:01:36.264Z,11.58
2017-11-22T09:02:36.274Z,11.54
2017-11-22T09:02:48.270Z,11.51
2017-11-22T09:04:36.253Z,11.56
2017-11-22T09:05:36.268Z,11.54
2017-11-22T09:06:36.232Z,11.69
2017-11-22T09:07:36.232Z,11.67
2017-11-22T09:08:36.237Z,11.66
2017-11-22T09:09:36.221Z,11.62
2017-11-22T09:10:36.218Z,11.61
2017-11-22T09:11:36.223Z,11.73
2017-11-22T09:12:36.205Z,11.74
2017-11-22T09:13:36.194Z,11.77
2017-11-22T09:14:36.189Z,11.77
2017-11-22T09:15:36.189Z,11.76
2017-11-22T09:16:36.191Z,11.79
2017-11-22T09:17:36.172Z,11.82
2017-11-22T09:18:36.155Z,11.80
2017-11-22T09:19:36.160Z,11.77
2017-11-22T09:20:36.151Z,11.77
2017-11-22T09:21:36.142Z,11.77
2017-11-22T09:22:36.127Z,11.80
2017-11-22T09:23:36.140Z,11.80
2017-11-22T09:24:36.125Z,11.82
2017-11-22T09:25:36.132Z,11.88
2017-11-22T09:26:36.153Z,11.88
2017-11-22T09:27:36.107Z,11.88
2017-11-22T09:28:36.111Z,11.99
2017-11-22T09:29:36.655Z,11.96
2017-11-22T09:30:36.656Z,12.04
2017-11-22T09:31:36.078Z,12.03
2017-11-22T09:32:36.075Z,12.05
2017-11-22T09:33:36.070Z,12.04
2017-11-22T09:34:36.054Z,12.05
2017-11-22T09:35:36.068Z,12.05
2017-11-22T09:36:36.061Z,12.08
2017-11-22T09:37:36.045Z,12.21
2017-11-22T09:38:36.037Z,12.05
2017-11-22T09:39:36.026Z,12.21
2017-11-22T09:40:36.045Z,12.08
2017-11-22T09:41:36.019Z,12.18
2017-11-22T09:42:36.012Z,12.18
2017-11-22T09:43:36.027Z,12.14
2017-11-22T09:44:36.007Z,12.11
2017-11-22T09:45:35.991Z,12.15
2017-11-22T09:46:35.993Z,12.29
2017-11-22T09:47:35.989Z,12.22
2017-11-22T09:48:35.981Z,12.26
2017-11-22T09:49:35.969Z,12.18
2017-11-22T09:50:35.984Z,12.28
2017-11-22T09:51:35.956Z,12.22
2017-11-22T09:52:35.962Z,12.25
2017-11-22T09:53:35.951Z,12.23
2017-11-22T09:54:35.945Z,12.29
2017-11-22T09:55:35.937Z,12.26
2017-11-22T09:56:35.936Z,12.25
2017-11-22T09:57:35.942Z,12.40
2017-11-22T09:58:35.924Z,12.40
2017-11-22T09:59:35.933Z,12.43
2017-11-22T10:00:35.922Z,12.43
2017-11-22T10:01:35.898Z,12.43
2017-11-22T10:02:35.903Z,12.44
2017-11-22T10:03:35.909Z,12.59
2017-11-22T10:04:35.888Z,12.54
2017-11-22T10:05:35.886Z,12.65
2017-11-22T10:06:35.876Z,12.62
2017-11-22T10:07:35.870Z,12.68
2017-11-22T10:08:35.864Z,12.66
2017-11-22T10:09:35.858Z,12.62
2017-11-22T10:10:35.865Z,12.72
2017-11-22T10:11:35.847Z,12.79
2017-11-22T10:12:35.855Z,12.80
2017-11-22T10:13:35.841Z,12.80
2017-11-22T10:14:35.834Z,12.77
2017-11-22T10:15:35.825Z,12.80
2017-11-22T10:16:35.817Z,12.91
2017-11-22T10:17:35.818Z,12.87
2017-11-22T10:18:35.809Z,12.96
2017-11-22T10:19:35.805Z,12.93
2017-11-22T10:20:35.806Z,12.93
2017-11-22T10:21:35.797Z,12.93
2017-11-22T10:22:35.787Z,12.99
2017-11-22T10:23:35.779Z,12.98
2017-11-22T10:24:35.786Z,12.99
2017-11-22T10:25:35.768Z,12.95
2017-11-22T10:26:35.766Z,12.87
2017-11-22T10:27:35.761Z,12.93
2017-11-22T10:28:35.765Z,12.90
2017-11-22T10:29:35.754Z,13.01
2017-11-22T10:30:35.748Z,12.96
2017-11-22T10:31:35.742Z,12.96
2017-11-22T10:32:36.690Z,12.95
2017-11-22T10:33:35.730Z,13.06
2017-11-22T10:34:35.724Z,13.13
2017-11-22T10:35:35.726Z,13.08
2017-11-22T10:36:35.726Z,13.11
2017-11-22T10:37:35.711Z,13.16
2017-11-22T10:38:35.709Z,13.11
2017-11-22T10:39:35.698Z,13.17
2017-11-22T10:40:35.700Z,13.09
2017-11-22T10:41:35.693Z,13.14
2017-11-22T10:42:36.187Z,13.06
2017-11-22T10:43:35.680Z,13.14
2017-11-22T10:44:35.681Z,13.24
2017-11-22T10:45:35.671Z,13.24
2017-11-22T10:46:35.656Z,13.27
2017-11-22T10:47:36.185Z,13.23
2017-11-22T10:48:35.661Z,13.27
2017-11-22T10:49:35.652Z,13.26
2017-11-22T10:50:35.646Z,13.26
2017-11-22T10:51:35.637Z,13.32
2017-11-22T10:52:35.657Z,13.24
2017-11-22T10:53:36.202Z,13.27
2017-11-22T10:54:35.625Z,13.19
2017-11-22T10:55:35.624Z,13.32
2017-11-22T10:56:35.624Z,13.32
2017-11-22T10:57:35.618Z,13.21
2017-11-22T10:58:35.602Z,13.30
2017-11-22T10:59:35.596Z,13.38
2017-11-22T11:00:35.594Z,13.30
2017-11-22T11:01:35.607Z,13.26
2017-11-22T11:02:35.582Z,13.38
2017-11-22T11:03:35.602Z,13.32
2017-11-22T11:04:35.574Z,13.40
2017-11-22T11:05:35.566Z,13.30
2017-11-22T11:06:35.554Z,13.30
2017-11-22T11:07:35.565Z,13.32
2017-11-22T11:08:35.559Z,13.35
2017-11-22T11:09:35.566Z,13.38
2017-11-22T11:10:35.550Z,13.30
2017-11-22T11:11:35.548Z,13.32
2017-11-22T11:12:36.226Z,13.36
2017-11-22T11:13:35.532Z,13.36
2017-11-22T11:14:35.524Z,13.38
2017-11-22T11:15:35.516Z,13.39
2017-11-22T11:16:35.517Z,13.46
2017-11-22T11:17:35.506Z,13.47
2017-11-22T11:18:35.508Z,13.45
2017-11-22T11:19:35.501Z,13.49
2017-11-22T11:20:35.495Z,13.54
2017-11-22T11:21:35.490Z,13.55
2017-11-22T11:22:35.482Z,13.60
2017-11-22T11:23:35.480Z,13.53
2017-11-22T11:24:35.476Z,13.57
2017-11-22T11:25:35.463Z,13.51
2017-11-22T11:26:35.467Z,13.57
2017-11-22T11:27:35.463Z,13.65
2017-11-22T11:28:35.455Z,13.65
2017-11-22T11:29:35.449Z,13.58
2017-11-22T11:30:35.445Z,13.64
2017-11-22T11:31:35.448Z,13.68
2017-11-22T11:32:35.439Z,13.60
2017-11-22T11:33:35.429Z,13.65
2017-11-22T11:34:35.433Z,13.64
2017-11-22T11:35:35.432Z,13.67
2017-11-22T11:36:35.427Z,13.71
2017-11-22T11:37:35.415Z,13.72
2017-11-22T11:38:35.410Z,13.68
2017-11-22T11:39:35.415Z,13.61
2017-11-22T11:40:35.402Z,13.73
2017-11-22T11:41:35.387Z,13.71
2017-11-22T11:42:35.381Z,13.72
2017-11-22T11:43:35.382Z,13.60
2017-11-22T11:44:35.373Z,13.68
2017-11-22T11:45:35.436Z,13.68
2017-11-22T11:46:35.381Z,13.65
2017-11-22T11:47:35.364Z,13.61
2017-11-22T11:48:35.363Z,13.67
2017-11-22T11:49:35.361Z,13.71
2017-11-22T11:50:35.346Z,13.63
2017-11-22T11:51:35.361Z,13.61
2017-11-22T11:52:35.347Z,13.55
2017-11-22T11:53:35.341Z,13.67
2017-11-22T11:54:35.331Z,13.65
2017-11-22T11:55:35.328Z,13.63
2017-11-22T11:56:35.324Z,13.68
2017-11-22T11:57:35.314Z,13.65
2017-11-22T11:58:35.319Z,13.61
2017-11-22T11:59:35.308Z,13.67
2017-11-22T12:00:35.307Z,13.64
2017-11-22T12:01:35.300Z,13.61
2017-11-22T12:02:35.293Z,13.57
2017-11-22T12:03:35.287Z,13.63
2017-11-22T12:04:35.286Z,13.61
2017-11-22T12:05:35.292Z,13.58
2017-11-22T12:06:36.231Z,13.64
2017-11-22T12:07:35.272Z,13.55
2017-11-22T12:08:35.261Z,13.63
2017-11-22T12:09:36.230Z,13.54
2017-11-22T12:10:36.234Z,13.60
2017-11-22T12:11:35.250Z,13.60
2017-11-22T12:12:35.241Z,13.61
2017-11-22T12:13:35.235Z,13.55
2017-11-22T12:14:35.228Z,13.54
2017-11-22T12:15:35.222Z,13.55
2017-11-22T12:16:35.222Z,13.51
2017-11-22T12:17:35.233Z,13.46
2017-11-22T12:18:35.216Z,13.54
2017-11-22T12:19:35.205Z,13.55
2017-11-22T12:20:35.210Z,13.58
2017-11-22T12:21:35.194Z,13.49
2017-11-22T12:22:35.190Z,13.49
2017-11-22T12:23:35.184Z,13.51
2017-11-22T12:24:35.183Z,13.46
2017-11-22T12:25:35.180Z,13.55
2017-11-22T12:26:35.756Z,13.49
2017-11-22T12:27:35.168Z,13.47
2017-11-22T12:28:35.164Z,13.45
2017-11-22T12:29:35.155Z,13.46
2017-11-22T12:30:35.169Z,13.45
2017-11-22T12:31:35.140Z,13.36
2017-11-22T12:32:35.144Z,13.39
2017-11-22T12:33:35.138Z,13.30
2017-11-22T12:34:35.133Z,13.32
2017-11-22T12:35:35.745Z,13.32
2017-11-22T12:36:35.127Z,13.36
2017-11-22T12:37:35.116Z,13.42
2017-11-22T12:38:35.110Z,13.38
2017-11-22T12:39:35.104Z,13.35
2017-11-22T12:40:35.100Z,13.47
2017-11-22T12:41:35.099Z,13.46
2017-11-22T12:42:35.098Z,13.45
2017-11-22T12:43:35.077Z,13.45
2017-11-22T12:44:35.106Z,13.46
2017-11-22T12:45:35.087Z,13.43
2017-11-22T12:46:35.741Z,13.54
2017-11-22T12:47:35.065Z,13.46
2017-11-22T12:48:35.052Z,13.54
2017-11-22T12:49:35.049Z,13.53
2017-11-22T12:50:35.045Z,13.55
2017-11-22T12:51:35.059Z,13.58
2017-11-22T12:52:35.033Z,13.53
2017-11-22T12:53:35.023Z,13.53
2017-11-22T12:54:35.026Z,13.53